createdAt,value
2024-02-29T00:02:14.229Z,26.35
2024-02-29T00:04:41.232Z,27.85
2024-02-29T00:07:08.253Z,29.23
2024-02-29T00:09:37.058Z,24.30
2024-02-29T00:12:05.326Z,24.45
2024-02-29T00:14:32.423Z,24.42
2024-02-29T00:17:01.798Z,26.00
2024-02-29T00:19:29.328Z,31.77
2024-02-29T00:21:56.603Z,23.95
2024-02-29T00:24:23.512Z,26.15
2024-02-29T00:26:50.357Z,27.83
2024-02-29T00:29:17.178Z,21.75
2024-02-29T00:31:47.790Z,25.85
2024-02-29T00:34:15.744Z,27.60
2024-02-29T00:36:42.799Z,24.92
2024-02-29T00:39:14.781Z,24.60
2024-02-29T00:41:43.194Z,25.23
2024-02-29T00:44:10.953Z,25.55
2024-02-29T00:46:41.880Z,23.05
2024-02-29T00:49:09.037Z,27.08
2024-02-29T00:51:36.048Z,25.20
2024-02-29T00:54:02.938Z,25.08
2024-02-29T00:56:29.762Z,27.92
2024-02-29T00:58:56.608Z,23.70
2024-02-29T01:01:23.500Z,21.88
2024-02-29T01:03:50.352Z,23.20
2024-02-29T01:06:17.450Z,24.17
2024-02-29T01:08:44.432Z,24.52
2024-02-29T01:11:11.441Z,23.33
2024-02-29T01:13:38.758Z,23.85
2024-02-29T01:16:06.022Z,25.88
2024-02-29T01:18:32.973Z,25.48
2024-02-29T01:20:59.864Z,26.25
2024-02-29T01:23:26.715Z,23.77
2024-02-29T01:25:53.492Z,21.58
2024-02-29T01:28:20.280Z,24.40
2024-02-29T01:30:47.147Z,23.98
2024-02-29T01:33:14.026Z,23.15
2024-02-29T01:35:41.003Z,23.60
2024-02-29T01:38:08.553Z,23.60
2024-02-29T01:40:35.525Z,23.77
2024-02-29T01:43:03.654Z,24.08
2024-02-29T01:45:30.655Z,21.60
2024-02-29T01:47:57.523Z,21.10
2024-02-29T01:50:25.261Z,22.15
2024-02-29T01:52:52.435Z,23.25
2024-02-29T01:55:19.365Z,22.25
2024-02-29T01:57:46.924Z,23.50
2024-02-29T02:00:15.241Z,20.83
2024-02-29T02:02:42.173Z,24.52
2024-02-29T02:05:09.195Z,23.88
2024-02-29T02:07:40.801Z,22.88
2024-02-29T02:10:09.502Z,21.92
2024-02-29T02:12:36.699Z,22.20
2024-02-29T02:15:04.437Z,21.13
2024-02-29T02:17:33.709Z,24.92
2024-02-29T02:20:01.765Z,26.33
2024-02-29T02:22:29.878Z,25.13
2024-02-29T02:24:57.594Z,21.13
2024-02-29T02:27:24.736Z,23.45
2024-02-29T02:29:51.504Z,24.88
2024-02-29T02:32:18.206Z,22.67
2024-02-29T02:34:45.747Z,22.40
2024-02-29T02:37:13.462Z,22.63
2024-02-29T02:39:40.526Z,23.65
2024-02-29T02:42:07.758Z,20.88
2024-02-29T02:44:34.577Z,23.10
2024-02-29T02:47:01.306Z,24.25
2024-02-29T02:49:28.190Z,21.77
2024-02-29T02:51:55.173Z,23.38
2024-02-29T02:54:22.092Z,25.23
2024-02-29T02:56:48.856Z,21.48
2024-02-29T02:59:15.628Z,24.65
2024-02-29T03:01:42.548Z,20.13
2024-02-29T03:04:09.568Z,24.40
2024-02-29T03:06:36.462Z,23.48
2024-02-29T03:09:04.022Z,23.00
2024-02-29T03:11:30.882Z,24.30
2024-02-29T03:13:59.000Z,25.80
2024-02-29T03:16:25.938Z,24.85
2024-02-29T03:18:52.909Z,26.25
2024-02-29T03:21:19.819Z,23.15
2024-02-29T03:23:46.752Z,27.92
2024-02-29T03:26:13.459Z,27.08
2024-02-29T03:28:40.846Z,26.50
2024-02-29T03:31:12.313Z,25.75
2024-02-29T03:33:39.219Z,24.35
2024-02-29T03:36:06.428Z,28.83
2024-02-29T03:38:33.412Z,26.65
2024-02-29T03:41:00.072Z,29.27
2024-02-29T03:43:26.871Z,30.67
2024-02-29T03:45:53.771Z,28.38
2024-02-29T03:48:20.604Z,31.00
2024-02-29T03:50:47.409Z,27.65
2024-02-29T03:53:14.200Z,30.33
2024-02-29T03:55:41.110Z,28.00
2024-02-29T03:58:07.969Z,28.88
2024-02-29T04:00:36.354Z,33.35
2024-02-29T04:03:03.354Z,28.00
2024-02-29T04:05:30.322Z,29.35
2024-02-29T04:08:01.904Z,29.67
2024-02-29T04:10:29.170Z,32.22
2024-02-29T04:12:56.857Z,32.35
2024-02-29T04:15:23.839Z,28.85
2024-02-29T04:17:50.658Z,29.70
2024-02-29T04:20:17.712Z,29.65
2024-02-29T04:22:44.497Z,29.30
2024-02-29T04:25:12.338Z,30.35
2024-02-29T04:27:40.272Z,29.45
2024-02-29T04:30:10.317Z,28.55
2024-02-29T04:35:07.224Z,31.27
2024-02-29T04:37:34.152Z,29.20
2024-02-29T04:40:01.202Z,29.95
2024-02-29T04:42:28.178Z,30.73
2024-02-29T04:44:54.961Z,32.92
2024-02-29T04:47:21.991Z,30.88
2024-02-29T04:49:49.134Z,32.92
2024-02-29T04:52:16.018Z,30.67
2024-02-29T04:54:43.250Z,33.50
2024-02-29T04:57:10.220Z,29.25
2024-02-29T04:59:37.619Z,30.27
2024-02-29T05:02:07.532Z,32.63
2024-02-29T05:04:34.594Z,35.17
2024-02-29T05:07:01.377Z,37.00
2024-02-29T05:09:28.199Z,36.80
2024-02-29T05:11:57.770Z,35.42
2024-02-29T05:14:24.614Z,36.63
2024-02-29T05:16:51.390Z,36.03
2024-02-29T05:19:19.105Z,39.35
2024-02-29T05:21:47.185Z,37.97
2024-02-29T05:24:14.144Z,32.38
2024-02-29T05:26:40.926Z,36.47
2024-02-29T05:29:08.859Z,35.55
2024-02-29T05:31:35.710Z,33.63
2024-02-29T05:34:02.544Z,36.15
2024-02-29T05:36:29.354Z,34.92
2024-02-29T05:38:56.196Z,30.60
2024-02-29T05:41:23.065Z,33.15
2024-02-29T05:43:50.774Z,40.75
2024-02-29T05:46:17.698Z,38.25
2024-02-29T05:48:44.593Z,38.42
2024-02-29T05:51:12.612Z,41.00
2024-02-29T05:53:39.776Z,44.15
2024-02-29T05:56:06.633Z,42.67
2024-02-29T05:58:33.421Z,42.28
2024-02-29T06:01:00.601Z,48.75
2024-02-29T06:03:27.574Z,41.50
2024-02-29T06:05:54.606Z,41.22
2024-02-29T06:08:21.367Z,42.60
2024-02-29T06:10:48.534Z,43.80
2024-02-29T06:13:15.627Z,40.92
2024-02-29T06:15:43.328Z,42.72
2024-02-29T06:18:11.961Z,42.05
2024-02-29T06:20:39.015Z,40.45
2024-02-29T06:23:06.850Z,42.20
2024-02-29T06:25:33.648Z,43.63
2024-02-29T06:28:00.541Z,43.85
2024-02-29T06:30:33.355Z,43.42
2024-02-29T06:33:01.559Z,39.42
2024-02-29T06:35:28.688Z,45.83
2024-02-29T06:37:55.536Z,42.42
2024-02-29T06:40:25.303Z,43.75
2024-02-29T06:42:52.163Z,43.15
2024-02-29T06:45:19.177Z,42.30
2024-02-29T06:47:46.384Z,42.53
2024-02-29T06:50:13.665Z,42.15
2024-02-29T06:52:41.587Z,42.03
2024-02-29T06:55:09.335Z,41.53
2024-02-29T06:57:36.943Z,37.60
2024-02-29T07:00:06.917Z,38.50
2024-02-29T07:02:34.145Z,40.45
2024-02-29T07:05:00.994Z,41.58
2024-02-29T07:07:28.129Z,40.78
2024-02-29T07:09:55.587Z,42.63
2024-02-29T07:12:22.593Z,38.08
2024-02-29T07:14:50.334Z,40.00
2024-02-29T07:17:17.950Z,40.88
2024-02-29T07:19:44.682Z,41.90
2024-02-29T07:22:12.363Z,37.80
2024-02-29T07:24:39.175Z,39.75
2024-02-29T07:27:06.023Z,35.08
2024-02-29T07:29:32.764Z,40.63
2024-02-29T07:31:59.567Z,37.38
2024-02-29T07:34:26.558Z,37.65
2024-02-29T07:36:53.348Z,37.28
2024-02-29T07:39:20.185Z,40.03
2024-02-29T07:41:46.877Z,35.45
2024-02-29T07:44:14.331Z,39.17
2024-02-29T07:46:41.266Z,40.17
2024-02-29T07:49:08.115Z,35.03
2024-02-29T07:51:34.981Z,35.92
2024-02-29T07:54:02.540Z,36.03
2024-02-29T07:56:30.456Z,44.50
2024-02-29T07:58:57.560Z,41.85
2024-02-29T08:01:24.545Z,35.97
2024-02-29T08:03:51.545Z,38.13
2024-02-29T08:06:18.372Z,38.67
2024-02-29T08:08:45.108Z,36.05
2024-02-29T08:11:12.006Z,36.30
2024-02-29T08:13:39.524Z,36.85
2024-02-29T08:16:07.476Z,37.33
2024-02-29T08:18:39.315Z,36.88
2024-02-29T08:21:06.156Z,35.90
2024-02-29T08:23:33.006Z,36.17
2024-02-29T08:25:59.922Z,39.20
2024-02-29T08:28:26.814Z,34.67
2024-02-29T08:30:53.755Z,37.03
2024-02-29T08:33:20.591Z,37.22
2024-02-29T08:35:47.753Z,36.40
2024-02-29T08:38:14.526Z,36.28
2024-02-29T08:40:41.257Z,38.42
2024-02-29T08:43:09.984Z,39.58
2024-02-29T08:45:36.850Z,39.45
2024-02-29T08:48:04.293Z,36.22
2024-02-29T08:50:31.128Z,36.55
2024-02-29T08:52:57.858Z,41.45
2024-02-29T08:55:25.454Z,40.03
2024-02-29T08:57:52.304Z,42.05
2024-02-29T09:00:19.462Z,36.28
2024-02-29T09:02:46.276Z,34.90
2024-02-29T09:05:13.017Z,38.40
2024-02-29T09:07:39.774Z,41.00
2024-02-29T09:10:07.991Z,37.65
2024-02-29T09:12:35.733Z,33.97
2024-02-29T09:15:03.754Z,39.17
2024-02-29T09:17:30.638Z,35.78
2024-02-29T09:19:57.401Z,36.70
2024-02-29T09:22:24.534Z,36.63
2024-02-29T09:24:51.638Z,34.20
2024-02-29T09:27:19.259Z,34.20
2024-02-29T09:29:46.016Z,36.30
2024-02-29T09:32:12.752Z,36.55
2024-02-29T09:34:43.408Z,41.85
2024-02-29T09:37:13.392Z,38.30
2024-02-29T09:39:40.627Z,36.50
2024-02-29T09:42:14.014Z,40.30
2024-02-29T09:44:43.756Z,36.13
2024-02-29T09:47:12.538Z,38.17
2024-02-29T09:49:39.922Z,34.88
2024-02-29T09:52:08.063Z,35.70
2024-02-29T09:54:37.084Z,37.70
2024-02-29T09:57:04.011Z,36.57
2024-02-29T09:59:31.694Z,38.72
2024-02-29T10:01:58.831Z,37.60
2024-02-29T10:04:28.038Z,34.42
2024-02-29T10:06:55.871Z,36.08
2024-02-29T10:09:23.002Z,36.90
2024-02-29T10:11:50.242Z,38.85
2024-02-29T10:14:26.715Z,39.00
2024-02-29T10:16:55.046Z,40.00
2024-02-29T10:19:23.179Z,36.08
2024-02-29T10:21:51.504Z,33.50
2024-02-29T10:24:25.699Z,39.53
2024-02-29T10:26:53.277Z,35.53
2024-02-29T10:29:22.492Z,36.03
2024-02-29T10:31:50.639Z,36.67
2024-02-29T10:34:20.463Z,39.05
2024-02-29T10:36:47.684Z,34.72
2024-02-29T10:39:14.575Z,44.47
2024-02-29T10:41:48.889Z,40.67
2024-02-29T10:44:18.720Z,35.40
2024-02-29T10:46:48.871Z,39.45
2024-02-29T10:49:39.003Z,37.90
2024-02-29T10:52:22.142Z,34.20
